KLAF

Purdue University Airport

Lafayette, Indiana, USA
METAR KLAF 211254Z 34013G17KT 6SM -RA BR BKN013 BKN022 OVC038 01/00 A3040 RMK AO2 PRESRR SLP296 P0003 T00060000
Observed Flight Rules
Feb-21 @ 12:54 UTC (28 minutes ago) Marginal Visual Flight Rules
Wind Visibility Clouds Conditions
340° at 13 knots
 Gusting to 17 knots
6 miles
  • Broken at 1,300' AGL
  • Broken at 2,200' AGL
  • Overcast at 3,800' AGL
  • Light Rain
  • Mist
Temperatures Readings Precipitation
Current 1°C / 34°F
Dewpoint 0°C / 32°F
Humidity 93%
Altimeter 30.4" Hg
Pressure 1029.6 hPa
Elevation 182
Current Rain 0.03
METAR KLAF 211254Z 34013G17KT 6SM -RA BR BKN013 BKN022 OVC038 01/00 A3040 RMK AO2 PRESRR SLP296 P0003 T00060000
Observed Flight Rules
Feb-21 @ 12:54 UTC
(28 minutes ago)
MVFR
Wind Visibility
340° at 13 knots
 Gusting to 17 knots
6 miles
Clouds
  • Broken at 1,300' AGL
  • Broken at 2,200' AGL
  • Overcast at 3,800' AGL
Conditions
  • Light Rain
  • Mist
Temperature Dewpoint
1°C / 34°F 0°C / 32°F
Humidity Altimeter Pressure
93% 30.4" Hg 1029.6 hPa
Current Rain
0.03